Meppel, Netherlands
Current Conditions -  °F | °C
As of 8:55 PM on Sunday 21 Dec 2014 (Local Time) from EHGG Reporting Station
Overcast Overcast  
Wind Chill: 40°   Ceiling: 1500
Heat Index: 48°   Visibility: 6mi
Dew Point: 43°   Wind: 26mph
Humidity: 82%   Direction: 240°WSW
Pressure: 30"   Gusts: NA
Location:  52.7°N, 6.19°E
Report Text: EHGG 211955Z AUTO 24023KT 210V270 9999 OVC015 09/06 Q1016 BECMGBKN014
Loading
Personal Weather Stations






























Interactive Weather Map New forecast layout! Learn more

10-Day Weather Forecast

Advertisements
Track Severe Weather on mobile